Time;durP1;ratioP1;P1;durP2;ratioP2;P2;SDS_P1;SDS_P2;PMS_P1;PMS_P2;Temp;Humidity;BMP_temperature;BMP_pressure;BME280_temperature;BME280_humidity;BME280_pressure;Samples;Min_cycle;Max_cycle;Signal;HPM_P1;HPM_P2
2022/08/07 00:00:28;;;;;;;4.25;2.13;;;16.00;83.50;;;;;;5110542;28;20035;-81
2022/08/07 00:02:56;;;;;;;2.83;1.60;;;15.90;83.10;;;;;;5110163;28;20024;-81
2022/08/07 00:05:23;;;;;;;4.15;1.60;;;15.90;82.70;;;;;;5109833;28;20055;-81
2022/08/07 00:07:49;;;;;;;2.05;1.38;;;15.90;82.60;;;;;;5112979;28;20527;-81
2022/08/07 00:10:15;;;;;;;3.10;1.70;;;15.90;82.60;;;;;;5114581;27;20879;-80
2022/08/07 00:12:42;;;;;;;3.08;1.67;;;15.80;83.10;;;;;;5114381;28;20038;-80
2022/08/07 00:15:09;;;;;;;3.53;1.83;;;15.80;83.30;;;;;;5112776;28;20436;-80
2022/08/07 00:17:34;;;;;;;3.83;1.90;;;15.80;83.30;;;;;;5113630;28;20034;-81
2022/08/07 00:20:00;;;;;;;3.55;2.08;;;15.70;83.40;;;;;;5114153;28;20028;-80
2022/08/07 00:22:25;;;;;;;2.97;2.28;;;15.70;84.10;;;;;;5112630;28;20046;-80
2022/08/07 00:24:51;;;;;;;3.97;1.90;;;15.60;84.40;;;;;;5114096;28;20302;-80
2022/08/07 00:27:16;;;;;;;3.30;1.90;;;15.60;85.00;;;;;;5113535;27;20028;-81
2022/08/07 00:29:42;;;;;;;3.47;1.67;;;15.50;85.10;;;;;;5113902;28;20028;-81
2022/08/07 00:32:08;;;;;;;5.53;1.80;;;15.50;85.00;;;;;;5113476;28;20035;-81
2022/08/07 00:34:34;;;;;;;3.53;1.40;;;15.50;85.10;;;;;;5114216;28;20024;-80
2022/08/07 00:36:59;;;;;;;3.33;1.95;;;15.40;84.80;;;;;;5113444;28;20130;-80
2022/08/07 00:39:25;;;;;;;3.58;1.85;;;15.40;85.00;;;;;;5112309;28;20148;-80
2022/08/07 00:41:56;;;;;;;3.35;1.50;;;15.40;85.10;;;;;;5114337;27;20473;-81
2022/08/07 00:44:22;;;;;;;2.25;1.40;;;15.30;85.50;;;;;;5113913;28;20024;-80
2022/08/07 00:46:49;;;;;;;3.03;1.60;;;15.30;86.00;;;;;;5119175;28;20038;-81
2022/08/07 00:49:15;;;;;;;2.75;1.42;;;15.30;86.10;;;;;;5120339;28;20164;-83
2022/08/07 00:51:40;;;;;;;3.60;1.60;;;15.30;87.10;;;;;;5114295;28;20459;-81
2022/08/07 00:54:06;;;;;;;1.95;1.30;;;15.30;87.10;;;;;;5113251;28;20023;-80
2022/08/07 00:56:32;;;;;;;2.03;1.75;;;15.20;87.30;;;;;;5113047;28;20093;-81
2022/08/07 00:58:59;;;;;;;2.85;1.52;;;15.20;87.80;;;;;;5113267;28;20100;-80
2022/08/07 01:01:25;;;;;;;3.08;1.30;;;15.20;87.60;;;;;;5113241;28;20036;-80
2022/08/07 01:03:50;;;;;;;2.70;1.75;;;15.20;87.80;;;;;;5113403;28;20604;-80
2022/08/07 01:06:17;;;;;;;3.65;1.88;;;15.10;87.90;;;;;;5112468;28;20027;-81
2022/08/07 01:08:44;;;;;;;3.22;1.48;;;15.10;88.20;;;;;;5113376;28;20076;-80
2022/08/07 01:11:13;;;;;;;2.65;1.42;;;15.10;88.20;;;;;;5111355;28;20122;-80
2022/08/07 01:13:39;;;;;;;2.30;1.60;;;15.10;88.20;;;;;;5113003;28;20042;-79
2022/08/07 01:16:06;;;;;;;3.10;1.40;;;15.00;88.40;;;;;;5112021;28;20067;-80
2022/08/07 01:18:32;;;;;;;2.55;1.60;;;15.00;88.60;;;;;;5111796;28;20028;-79
2022/08/07 01:21:11;;;;;;;2.10;1.80;;;15.00;88.90;;;;;;5112368;28;20127;-80
2022/08/07 01:23:39;;;;;;;3.17;1.55;;;15.00;89.40;;;;;;5112719;28;20032;-80
2022/08/07 01:26:06;;;;;;;2.45;1.60;;;14.90;89.70;;;;;;5112120;28;20032;-80
2022/08/07 01:28:32;;;;;;;3.15;1.40;;;14.90;90.00;;;;;;5111387;28;20053;-81
2022/08/07 01:31:00;;;;;;;4.75;1.20;;;14.90;90.10;;;;;;5111008;28;20449;-81
2022/08/07 01:33:25;;;;;;;3.30;1.70;;;14.80;90.10;;;;;;5111293;28;20534;-80
2022/08/07 01:35:51;;;;;;;2.08;1.20;;;14.80;90.20;;;;;;5112275;28;20024;-80
2022/08/07 01:38:17;;;;;;;2.15;1.17;;;14.80;90.60;;;;;;5112289;28;20090;-81
2022/08/07 01:40:44;;;;;;;2.53;1.15;;;14.70;90.70;;;;;;5111139;28;20031;-81
2022/08/07 01:43:10;;;;;;;2.20;1.23;;;14.70;91.00;;;;;;5112314;28;20046;-80
2022/08/07 01:45:36;;;;;;;1.45;1.00;;;14.70;91.00;;;;;;5111984;28;20027;-81
2022/08/07 01:48:03;;;;;;;2.65;1.30;;;14.70;91.00;;;;;;5111032;28;20080;-81
2022/08/07 01:50:30;;;;;;;3.53;1.00;;;14.70;90.70;;;;;;5112449;28;20028;-80
2022/08/07 01:52:57;;;;;;;1.70;0.80;;;14.60;90.60;;;;;;5112187;28;20035;-81
2022/08/07 01:55:34;;;;;;;1.52;1.13;;;14.60;90.40;;;;;;5112026;28;20020;-81
2022/08/07 01:58:03;;;;;;;4.35;1.00;;;14.70;90.50;;;;;;5112145;28;20047;-81
2022/08/07 02:00:30;;;;;;;1.27;0.82;;;14.60;90.50;;;;;;5112585;28;20043;-81
2022/08/07 02:03:01;;;;;;;2.65;1.25;;;14.60;90.70;;;;;;5110854;28;20504;-81
2022/08/07 02:05:38;;;;;;;2.75;1.13;;;14.60;90.80;;;;;;5111564;28;20036;-81
2022/08/07 02:08:10;;;;;;;3.95;1.02;;;14.60;91.00;;;;;;5110580;28;20039;-81
2022/08/07 02:10:36;;;;;;;;;;;14.50;91.10;;;;;;5112366;28;20362;-80
2022/08/07 02:13:03;;;;;;;1.95;1.20;;;14.50;91.20;;;;;;5111757;28;20028;-81
2022/08/07 02:15:30;;;;;;;3.20;1.15;;;14.50;91.40;;;;;;5111338;28;20043;-80
2022/08/07 02:17:57;;;;;;;2.28;1.70;;;14.40;91.50;;;;;;5110728;28;20044;-80
2022/08/07 02:20:24;;;;;;;1.60;1.10;;;14.40;91.60;;;;;;5111912;28;20032;-80
2022/08/07 02:22:56;;;;;;;2.95;1.27;;;14.40;91.80;;;;;;5110472;28;20059;-81
2022/08/07 02:25:24;;;;;;;2.42;1.30;;;14.30;91.90;;;;;;5111289;28;20465;-81
2022/08/07 02:27:51;;;;;;;3.85;1.40;;;14.30;92.00;;;;;;5110854;28;20572;-80
2022/08/07 02:30:17;;;;;;;2.00;1.30;;;14.30;92.20;;;;;;5111460;28;20512;-80
2022/08/07 02:32:44;;;;;;;2.65;1.40;;;14.20;92.50;;;;;;5111226;28;20031;-80
2022/08/07 02:35:10;;;;;;;1.73;1.35;;;14.20;92.60;;;;;;5111122;28;20023;-80
2022/08/07 02:37:39;;;;;;;2.17;1.00;;;14.20;92.70;;;;;;5109797;28;20042;-80
2022/08/07 02:40:07;;;;;;;2.50;1.20;;;14.20;92.90;;;;;;5110189;28;20481;-80
2022/08/07 02:42:33;;;;;;;1.40;0.95;;;14.20;92.90;;;;;;5111154;28;20110;-80
2022/08/07 02:45:01;;;;;;;1.75;1.10;;;14.20;92.90;;;;;;5109856;28;20053;-80
2022/08/07 02:47:27;;;;;;;1.10;0.90;;;14.20;92.50;;;;;;5109266;28;20435;-81
2022/08/07 02:49:53;;;;;;;1.60;1.00;;;14.20;92.70;;;;;;5111197;28;20028;-81
2022/08/07 02:52:25;;;;;;;1.63;1.27;;;14.10;92.80;;;;;;5110751;28;20438;-79
2022/08/07 02:54:52;;;;;;;1.40;0.75;;;14.10;92.80;;;;;;5109839;28;20038;-80
2022/08/07 02:57:20;;;;;;;1.98;0.60;;;14.10;92.50;;;;;;5110157;28;20081;-79
2022/08/07 02:59:49;;;;;;;1.50;0.90;;;14.10;92.60;;;;;;5110683;28;20024;-80
2022/08/07 03:02:15;;;;;;;2.45;0.88;;;14.10;92.70;;;;;;5109777;28;20027;-80
2022/08/07 03:04:42;;;;;;;3.80;1.17;;;14.10;93.00;;;;;;5109923;28;20024;-80
2022/08/07 03:07:08;;;;;;;3.03;1.38;;;14.10;93.10;;;;;;5109134;28;20091;-80
2022/08/07 03:09:34;;;;;;;3.15;1.33;;;14.00;93.30;;;;;;5109840;28;20561;-80
2022/08/07 03:12:02;;;;;;;2.00;1.25;;;14.00;93.20;;;;;;5110645;28;20099;-80
2022/08/07 03:14:28;;;;;;;3.13;1.27;;;14.00;93.00;;;;;;5110903;28;20477;-80
2022/08/07 03:16:55;;;;;;;1.70;1.08;;;14.00;93.00;;;;;;5109099;28;20482;-80
2022/08/07 03:19:21;;;;;;;1.67;0.88;;;14.00;93.00;;;;;;5109593;28;20485;-79
2022/08/07 03:21:48;;;;;;;1.73;1.42;;;14.00;92.90;;;;;;5109611;28;20044;-80
2022/08/07 03:24:13;;;;;;;3.05;1.15;;;14.00;93.10;;;;;;5109265;28;20051;-81
2022/08/07 03:26:40;;;;;;;1.23;0.85;;;13.90;93.30;;;;;;5108817;28;20537;-80
2022/08/07 03:29:07;;;;;;;2.13;0.88;;;13.90;93.40;;;;;;5109203;28;20027;-79
2022/08/07 03:31:35;;;;;;;3.85;1.20;;;13.90;93.60;;;;;;5110358;28;20051;-79
2022/08/07 03:34:02;;;;;;;3.03;1.10;;;13.90;93.50;;;;;;5110617;28;20494;-79
2022/08/07 03:36:29;;;;;;;2.28;1.52;;;13.80;93.70;;;;;;5109949;28;20059;-80
2022/08/07 03:39:06;;;;;;;1.63;1.05;;;13.80;93.50;;;;;;5109885;28;20024;-80
2022/08/07 03:41:32;;;;;;;2.03;1.02;;;13.80;93.60;;;;;;5113361;28;20028;-79
2022/08/07 03:43:58;;;;;;;1.33;1.08;;;13.70;93.80;;;;;;5114785;28;20043;-79
2022/08/07 03:46:25;;;;;;;2.40;0.88;;;13.70;94.20;;;;;;5113592;28;20039;-79
2022/08/07 03:48:51;;;;;;;2.33;1.20;;;13.70;94.50;;;;;;5114913;28;20385;-80
2022/08/07 03:51:19;;;;;;;4.40;1.10;;;13.70;94.70;;;;;;5113342;28;20114;-81
2022/08/07 03:53:44;;;;;;;2.58;1.42;;;13.70;94.70;;;;;;5115330;28;20028;-80
2022/08/07 03:56:10;;;;;;;2.22;1.17;;;13.60;94.60;;;;;;5114393;28;20032;-80
2022/08/07 03:58:36;;;;;;;4.75;1.30;;;13.60;94.50;;;;;;5115195;28;20027;-80
2022/08/07 04:01:03;;;;;;;3.15;1.27;;;13.60;94.50;;;;;;5114471;28;20031;-81
2022/08/07 04:03:29;;;;;;;2.42;1.30;;;13.60;94.60;;;;;;5116103;28;20039;-80
2022/08/07 04:05:55;;;;;;;2.83;1.15;;;13.60;94.50;;;;;;5116270;28;20028;-80
2022/08/07 04:08:20;;;;;;;2.65;0.95;;;13.60;94.50;;;;;;5118127;28;20401;-80
2022/08/07 04:10:50;;;;;;;1.50;0.98;;;13.60;94.70;;;;;;5116021;28;20438;-80
2022/08/07 04:13:16;;;;;;;2.00;1.10;;;13.50;94.80;;;;;;5112877;28;20180;-80
2022/08/07 04:15:43;;;;;;;1.30;1.00;;;13.60;94.80;;;;;;5114538;28;20027;-79
2022/08/07 04:18:12;;;;;;;1.45;1.10;;;13.50;94.70;;;;;;5122221;28;20035;-80
2022/08/07 04:20:37;;;;;;;4.70;1.40;;;13.60;94.80;;;;;;5124889;28;20031;-79
2022/08/07 04:23:03;;;;;;;2.58;1.33;;;13.60;94.90;;;;;;5125088;28;20028;-79
2022/08/07 04:25:29;;;;;;;1.20;1.02;;;13.50;94.90;;;;;;5124784;27;20385;-80
2022/08/07 04:27:55;;;;;;;2.85;1.17;;;13.60;95.00;;;;;;5125753;28;20039;-80
2022/08/07 04:30:20;;;;;;;3.28;1.00;;;13.60;95.00;;;;;;5124911;27;20059;-80
2022/08/07 04:32:46;;;;;;;1.10;0.90;;;13.60;95.30;;;;;;5124847;28;20047;-80
2022/08/07 04:35:12;;;;;;;1.65;1.00;;;13.60;95.40;;;;;;5125124;27;20489;-80
2022/08/07 04:37:38;;;;;;;1.75;1.00;;;13.60;95.40;;;;;;5123948;28;20035;-80
2022/08/07 04:40:04;;;;;;;1.70;0.93;;;13.60;95.30;;;;;;5114964;28;20016;-79
2022/08/07 04:42:33;;;;;;;2.65;1.13;;;13.60;95.40;;;;;;5114017;28;20024;-80
2022/08/07 04:45:00;;;;;;;3.90;0.93;;;13.70;95.40;;;;;;5113039;28;20036;-79
2022/08/07 04:47:48;;;;;;;1.00;0.80;;;13.70;95.40;;;;;;5113145;28;20032;-80
2022/08/07 04:50:36;;;;;;;2.17;1.10;;;13.70;95.50;;;;;;5112764;28;20028;-81
2022/08/07 04:53:11;;;;;;;1.70;1.20;;;13.70;95.50;;;;;;5113255;28;20024;-80
2022/08/07 04:55:52;;;;;;;2.40;1.10;;;13.70;95.50;;;;;;5113234;28;20333;-80
2022/08/07 04:58:44;;;;;;;1.27;0.82;;;13.80;95.50;;;;;;5113421;28;20031;-80
2022/08/07 05:01:28;;;;;;;1.15;0.80;;;13.80;95.70;;;;;;5113327;28;20080;-80
2022/08/07 05:04:04;;;;;;;0.75;0.65;;;13.80;95.70;;;;;;5113487;28;20019;-80
2022/08/07 05:06:48;;;;;;;1.98;1.45;;;13.80;95.90;;;;;;5112983;28;20049;-80
2022/08/07 05:09:23;;;;;;;1.13;0.88;;;13.90;96.00;;;;;;5113381;28;20042;-80
2022/08/07 05:11:51;;;;;;;3.83;0.90;;;13.90;96.00;;;;;;5113204;28;20106;-81
2022/08/07 05:14:32;;;;;;;1.42;1.10;;;14.00;96.10;;;;;;5113292;28;20024;-80
2022/08/07 05:17:01;;;;;;;1.85;0.95;;;14.00;95.90;;;;;;5112847;28;20036;-80
2022/08/07 05:19:34;;;;;;;3.28;1.05;;;14.10;95.90;;;;;;5112036;28;20050;-80
2022/08/07 05:22:01;;;;;;;1.20;0.80;;;14.10;95.80;;;;;;5113753;28;20040;-80
2022/08/07 05:24:28;;;;;;;2.67;0.93;;;14.20;95.60;;;;;;5112977;28;20046;-80
2022/08/07 05:26:57;;;;;;;3.38;0.98;;;14.30;95.40;;;;;;5112865;28;20020;-81
2022/08/07 05:29:25;;;;;;;4.35;1.15;;;14.30;95.10;;;;;;5113048;28;20050;-80
2022/08/07 05:31:52;;;;;;;1.98;1.10;;;14.40;94.90;;;;;;5111362;28;20032;-79
2022/08/07 05:34:19;;;;;;;3.33;1.17;;;14.50;94.90;;;;;;5113008;27;20477;-80
2022/08/07 05:36:50;;;;;;;1.75;1.17;;;14.50;94.70;;;;;;5112389;28;20024;-79
2022/08/07 05:39:18;;;;;;;1.35;0.85;;;14.60;94.70;;;;;;5112935;28;20280;-79
2022/08/07 05:41:46;;;;;;;2.00;1.10;;;14.60;94.10;;;;;;5112324;28;20051;-79
2022/08/07 05:44:12;;;;;;;2.75;1.23;;;14.70;94.20;;;;;;5112908;28;20020;-80
2022/08/07 05:46:39;;;;;;;1.42;0.80;;;14.80;94.00;;;;;;5112322;28;20084;-81
2022/08/07 05:49:07;;;;;;;1.50;0.93;;;14.80;93.90;;;;;;5114754;28;20035;-80
2022/08/07 05:51:33;;;;;;;2.30;0.90;;;14.90;93.40;;;;;;5122037;28;20400;-79
2022/08/07 05:53:59;;;;;;;2.50;0.70;;;15.10;93.30;;;;;;5117328;28;20110;-80
2022/08/07 05:56:26;;;;;;;1.30;0.60;;;15.10;93.20;;;;;;5112638;28;20126;-80
2022/08/07 05:58:52;;;;;;;0.82;0.52;;;15.20;92.40;;;;;;5113149;28;20028;-80
2022/08/07 06:01:19;;;;;;;1.02;0.60;;;15.30;92.00;;;;;;5112169;28;20039;-81
2022/08/07 06:03:49;;;;;;;1.98;0.70;;;15.40;92.10;;;;;;5112454;28;20020;-80
2022/08/07 06:06:15;;;;;;;3.55;0.60;;;15.50;92.00;;;;;;5123270;28;20031;-80
2022/08/07 06:08:41;;;;;;;1.58;0.70;;;15.60;91.70;;;;;;5122176;28;20027;-80
2022/08/07 06:11:07;;;;;;;0.70;0.60;;;15.70;91.40;;;;;;5115680;28;20031;-81
2022/08/07 06:13:35;;;;;;;3.45;0.63;;;15.80;91.10;;;;;;5114154;28;20565;-81
2022/08/07 06:16:03;;;;;;;1.05;0.70;;;15.90;90.60;;;;;;5112138;28;20023;-81
2022/08/07 06:18:31;;;;;;;0.80;0.50;;;16.00;90.70;;;;;;5112465;28;20043;-82
2022/08/07 06:20:58;;;;;;;2.28;0.60;;;16.10;90.50;;;;;;5112308;28;20470;-81
2022/08/07 06:23:24;;;;;;;1.67;0.68;;;16.30;91.00;;;;;;5106506;28;20125;-80
2022/08/07 06:25:50;;;;;;;1.42;0.68;;;16.30;90.60;;;;;;5106156;28;20039;-81
2022/08/07 06:28:15;;;;;;;2.33;0.63;;;16.40;90.40;;;;;;5110606;28;20038;-81
2022/08/07 06:30:41;;;;;;;2.63;0.50;;;16.50;90.40;;;;;;5110460;28;20107;-80
2022/08/07 06:33:07;;;;;;;1.98;0.65;;;16.60;90.00;;;;;;5111813;28;20423;-80
2022/08/07 06:35:34;;;;;;;0.75;0.40;;;16.70;90.20;;;;;;5110147;28;20023;-80
2022/08/07 06:38:00;;;;;;;1.50;0.52;;;16.80;89.80;;;;;;5111818;28;20461;-80
2022/08/07 06:40:35;;;;;;;0.32;0.32;;;16.80;88.60;;;;;;5112226;28;20063;-81
2022/08/07 06:43:03;;;;;;;1.77;0.40;;;16.90;88.20;;;;;;5112158;28;20031;-81
2022/08/07 06:45:31;;;;;;;1.50;0.45;;;17.00;87.00;;;;;;5111601;28;20108;-81
2022/08/07 06:47:56;;;;;;;0.70;0.40;;;17.10;86.80;;;;;;5112424;28;20023;-80
2022/08/07 06:50:23;;;;;;;0.68;0.40;;;17.30;86.70;;;;;;5111866;28;20382;-81
2022/08/07 06:52:53;;;;;;;0.95;0.50;;;17.40;85.70;;;;;;5111776;28;20032;-80
2022/08/07 06:55:26;;;;;;;0.82;0.57;;;17.50;85.40;;;;;;5111467;28;20473;-83
2022/08/07 06:57:56;;;;;;;1.45;0.45;;;17.60;85.30;;;;;;5110395;28;20034;-80
2022/08/07 07:00:21;;;;;;;1.17;0.52;;;17.80;85.50;;;;;;5110381;28;20056;-80
2022/08/07 07:02:47;;;;;;;0.90;0.40;;;17.90;84.90;;;;;;5111430;28;20405;-81
2022/08/07 07:05:13;;;;;;;2.53;0.50;;;18.00;84.90;;;;;;5109531;28;20161;-81
2022/08/07 07:07:39;;;;;;;1.50;0.60;;;18.20;83.60;;;;;;5111114;28;20023;-81
2022/08/07 07:10:05;;;;;;;1.35;0.60;;;18.30;84.00;;;;;;5111562;28;20118;-81
2022/08/07 07:12:45;;;;;;;1.05;0.50;;;18.40;83.30;;;;;;5109708;28;20634;-80
2022/08/07 07:15:20;;;;;;;1.35;0.57;;;18.60;82.90;;;;;;5111069;28;20032;-82
2022/08/07 07:18:14;;;;;;;2.05;0.73;;;18.70;83.90;;;;;;5111605;28;20144;-82
2022/08/07 07:20:49;;;;;;;0.82;0.40;;;18.80;84.00;;;;;;5112965;28;20092;-81
2022/08/07 07:23:15;;;;;;;0.80;0.50;;;18.90;82.00;;;;;;5110556;28;20382;-81
2022/08/07 07:25:43;;;;;;;0.77;0.38;;;19.10;80.70;;;;;;5112202;28;20027;-82
2022/08/07 07:28:15;;;;;;;0.88;0.50;;;19.20;79.80;;;;;;5116066;28;20023;-82
2022/08/07 07:30:44;;;;;;;0.88;0.50;;;19.40;80.30;;;;;;5117844;28;20110;-82
2022/08/07 07:33:13;;;;;;;0.95;0.75;;;19.50;80.30;;;;;;5112320;28;20797;-82
2022/08/07 07:35:42;;;;;;;1.67;0.60;;;19.70;81.20;;;;;;5111169;28;20016;-82
2022/08/07 07:38:10;;;;;;;1.10;0.60;;;19.80;80.70;;;;;;5111155;28;20038;-83
2022/08/07 07:40:38;;;;;;;4.10;0.60;;;20.00;79.80;;;;;;5111250;28;20031;-82
2022/08/07 07:43:04;;;;;;;7.72;0.60;;;20.20;80.00;;;;;;5109471;28;20441;-83
2022/08/07 07:45:31;;;;;;;0.75;0.40;;;20.30;79.90;;;;;;5110471;28;20059;-83
2022/08/07 07:47:58;;;;;;;0.95;0.60;;;20.50;76.60;;;;;;5110865;28;20031;-83
2022/08/07 07:50:27;;;;;;;2.08;0.60;;;20.70;76.90;;;;;;5110853;28;20019;-84
2022/08/07 07:52:53;;;;;;;1.30;0.50;;;20.90;77.00;;;;;;5112106;28;20038;-84
2022/08/07 07:55:19;;;;;;;0.77;0.50;;;21.10;77.80;;;;;;5112739;28;20098;-82
2022/08/07 07:57:48;;;;;;;3.22;0.38;;;21.30;75.30;;;;;;5113841;28;20036;-84
2022/08/07 08:00:14;;;;;;;0.40;0.30;;;21.50;73.20;;;;;;5112729;28;20023;-83
2022/08/07 08:02:43;;;;;;;2.13;0.47;;;21.70;72.40;;;;;;5111194;28;20898;-83
2022/08/07 08:05:09;;;;;;;1.17;0.40;;;21.80;70.80;;;;;;5113669;28;20027;-84
2022/08/07 08:07:37;;;;;;;1.65;0.50;;;21.90;72.60;;;;;;5113145;28;20028;-83
2022/08/07 08:10:04;;;;;;;0.98;0.45;;;22.00;72.20;;;;;;5111198;28;20028;-84
2022/08/07 08:12:32;;;;;;;1.15;0.50;;;22.20;71.00;;;;;;5110427;28;20051;-84
2022/08/07 08:14:57;;;;;;;0.80;0.40;;;22.30;71.30;;;;;;5111019;28;20024;-85
2022/08/07 08:17:24;;;;;;;1.25;0.40;;;22.50;70.90;;;;;;5108720;28;20168;-84
2022/08/07 08:19:53;;;;;;;1.00;0.47;;;22.70;70.80;;;;;;5111049;28;20125;-85
2022/08/07 08:27:53;;;;;;;0.60;0.30;;;23.10;69.20;;;;;;5114609;28;20083;-84
2022/08/07 08:30:19;;;;;;;1.45;0.38;;;23.20;66.20;;;;;;5114459;28;20450;-83
2022/08/07 08:32:53;;;;;;;1.00;0.25;;;23.30;66.20;;;;;;5114178;28;20051;-83
2022/08/07 08:35:22;;;;;;;0.68;0.30;;;23.40;66.30;;;;;;5112540;28;20027;-83
2022/08/07 08:37:50;;;;;;;1.05;0.30;;;23.50;65.00;;;;;;5114348;28;20165;-83
2022/08/07 08:40:24;;;;;;;3.60;0.47;;;23.70;65.50;;;;;;5114068;27;20023;-84
2022/08/07 08:43:30;;;;;;;1.63;0.30;;;23.90;65.90;;;;;;5112910;28;20035;-84
2022/08/07 08:46:17;;;;;;;1.58;0.40;;;24.00;61.60;;;;;;5112476;28;20035;-84
2022/08/07 08:48:58;;;;;;;0.57;0.30;;;24.20;60.20;;;;;;5114359;27;20481;-85
2022/08/07 08:51:35;;;;;;;0.73;0.28;;;24.20;59.10;;;;;;5113214;28;20054;-84
2022/08/07 08:54:09;;;;;;;0.40;0.30;;;24.10;58.10;;;;;;5113404;27;20468;-85
2022/08/07 08:56:39;;;;;;;0.65;0.30;;;24.00;58.60;;;;;;5112691;28;20043;-85
2022/08/07 08:59:25;;;;;;;0.30;0.15;;;24.00;58.90;;;;;;5113367;28;20028;-84
2022/08/07 09:02:24;;;;;;;0.68;0.25;;;24.20;59.90;;;;;;5111599;28;20112;-85
2022/08/07 09:05:10;;;;;;;0.63;0.40;;;24.30;57.90;;;;;;5113377;27;20059;-85
2022/08/07 09:07:58;;;;;;;1.10;0.30;;;24.10;56.10;;;;;;5113034;28;20341;-85
2022/08/07 09:10:31;;;;;;;0.20;0.20;;;24.00;59.90;;;;;;5113330;28;20101;-85
2022/08/07 09:13:09;;;;;;;0.65;0.38;;;24.10;56.80;;;;;;5112890;28;20059;-85
2022/08/07 09:16:01;;;;;;;1.65;0.40;;;24.30;56.90;;;;;;5112779;27;20055;-85
2022/08/07 09:18:45;;;;;;;1.38;0.25;;;24.40;57.70;;;;;;5112382;28;20067;-85
2022/08/07 09:21:30;;;;;;;1.17;0.28;;;24.50;55.50;;;;;;5113482;28;20081;-85
2022/08/07 09:24:11;;;;;;;0.75;0.30;;;24.50;57.30;;;;;;5113834;28;20098;-85
2022/08/07 09:26:50;;;;;;;1.80;0.32;;;24.50;56.70;;;;;;5113392;28;20103;-86
2022/08/07 09:29:32;;;;;;;2.92;0.30;;;24.60;58.60;;;;;;5112958;28;20031;-84
2022/08/07 09:32:11;;;;;;;0.73;0.40;;;24.70;56.40;;;;;;5113340;28;20032;-85
2022/08/07 09:34:54;;;;;;;4.93;0.40;;;24.80;59.40;;;;;;5113335;28;20019;-86
2022/08/07 09:37:48;;;;;;;0.13;0.10;;;25.10;57.50;;;;;;5112263;28;20096;-87
2022/08/07 09:40:28;;;;;;;0.63;0.22;;;25.30;56.60;;;;;;5113615;28;20016;-87
2022/08/07 09:43:27;;;;;;;0.95;0.20;;;25.40;56.00;;;;;;5112984;28;20498;-86
2022/08/07 09:46:17;;;;;;;0.70;0.20;;;25.40;53.00;;;;;;5112943;28;20504;-86
2022/08/07 09:49:28;;;;;;;0.50;0.20;;;25.60;57.80;;;;;;5113589;28;20034;-87
2022/08/07 09:52:26;;;;;;;1.13;0.20;;;25.70;53.20;;;;;;5112659;28;20095;-88
2022/08/07 09:55:04;;;;;;;2.03;0.40;;;25.70;54.10;;;;;;5078528;28;20501;-86
2022/08/07 09:57:36;;;;;;;0.30;0.20;;;25.80;50.90;;;;;;5111716;28;20102;-85
2022/08/07 10:00:10;;;;;;;1.15;0.30;;;25.70;52.20;;;;;;5113415;28;20028;-86
2022/08/07 10:02:56;;;;;;;0.40;0.20;;;25.70;52.10;;;;;;5112384;28;20024;-88
2022/08/07 10:05:51;;;;;;;1.05;0.30;;;25.60;52.50;;;;;;5112006;27;20028;-86
2022/08/07 10:08:38;;;;;;;1.75;0.30;;;25.70;56.50;;;;;;5112350;28;20115;-86
2022/08/07 10:11:25;;;;;;;1.65;0.30;;;25.70;52.70;;;;;;5112797;28;20051;-86
2022/08/07 10:14:43;;;;;;;0.75;0.20;;;25.70;55.40;;;;;;5113379;28;20798;-86
2022/08/07 10:17:43;;;;;;;0.93;0.30;;;25.80;54.90;;;;;;5112570;27;20035;-85
2022/08/07 10:20:21;;;;;;;0.93;0.20;;;25.80;51.80;;;;;;5112556;28;20031;-86
2022/08/07 10:23:10;;;;;;;2.50;0.30;;;25.80;52.20;;;;;;5112258;28;20031;-85
2022/08/07 10:25:47;;;;;;;0.22;0.20;;;25.70;53.90;;;;;;5112335;28;20405;-87
2022/08/07 10:28:22;;;;;;;1.50;0.20;;;26.00;52.60;;;;;;5111900;28;20020;-90
2022/08/07 10:30:59;;;;;;;0.65;0.20;;;26.20;51.90;;;;;;5111011;28;20048;-86
2022/08/07 10:33:46;;;;;;;0.63;0.30;;;26.40;55.30;;;;;;5111281;28;20441;-87
2022/08/07 10:36:36;;;;;;;0.30;0.20;;;26.60;52.40;;;;;;5112135;28;20072;-85
2022/08/07 10:39:27;;;;;;;0.30;0.20;;;26.80;53.30;;;;;;5110628;28;20122;-89
2022/08/07 10:42:05;;;;;;;2.20;0.30;;;27.00;51.50;;;;;;5111820;28;20458;-86
2022/08/07 10:44:52;;;;;;;0.40;0.20;;;27.10;53.60;;;;;;5112683;28;20038;-85
2022/08/07 10:47:41;;;;;;;0.52;0.20;;;27.30;51.40;;;;;;5110458;28;20389;-84
2022/08/07 10:50:15;;;;;;;0.60;0.22;;;27.40;49.80;;;;;;5119869;28;20030;-85
2022/08/07 10:53:24;;;;;;;0.90;0.30;;;27.40;50.60;;;;;;5121459;28;20034;-85
2022/08/07 10:55:52;;;;;;;0.77;0.20;;;27.40;51.00;;;;;;5111816;28;20031;-85
2022/08/07 10:58:33;;;;;;;0.40;0.20;;;27.50;49.70;;;;;;5111991;28;20028;-85
2022/08/07 11:01:16;;;;;;;0.82;0.20;;;27.60;48.60;;;;;;5111263;28;20016;-86
2022/08/07 11:03:47;;;;;;;1.40;0.25;;;27.60;51.80;;;;;;5111484;28;20031;-87
2022/08/07 11:06:23;;;;;;;3.10;0.43;;;27.80;51.10;;;;;;5110511;28;20027;-83
2022/08/07 11:08:58;;;;;;;0.70;0.22;;;27.60;48.00;;;;;;5109813;28;20059;-87
2022/08/07 11:11:42;;;;;;;0.98;0.32;;;27.50;50.30;;;;;;5109468;28;20034;-85
2022/08/07 11:14:19;;;;;;;0.47;0.25;;;27.50;48.00;;;;;;5110865;28;20031;-87
2022/08/07 11:16:51;;;;;;;0.80;0.20;;;27.70;48.10;;;;;;5110398;28;20067;-85
2022/08/07 11:19:32;;;;;;;;;;;27.80;48.40;;;;;;5111559;28;20055;-85
2022/08/07 11:22:09;;;;;;;0.65;0.20;;;27.90;51.70;;;;;;5111155;28;19911;-85
2022/08/07 11:24:49;;;;;;;1.58;0.32;;;28.00;49.50;;;;;;5109964;28;20028;-86
2022/08/07 11:27:41;;;;;;;0.38;0.10;;;28.20;50.60;;;;;;5110633;28;20462;-86
2022/08/07 11:30:13;;;;;;;1.50;0.35;;;28.40;48.90;;;;;;5110578;28;20023;-86
2022/08/07 11:32:44;;;;;;;;;;;28.30;46.70;;;;;;5111048;28;20054;-85
2022/08/07 11:35:15;;;;;;;0.68;0.30;;;28.10;47.30;;;;;;5110866;28;20062;-88
2022/08/07 11:38:17;;;;;;;1.58;0.30;;;28.20;48.50;;;;;;5110484;28;20035;-89
2022/08/07 11:41:06;;;;;;;6.75;0.30;;;28.40;49.80;;;;;;5110304;28;20428;-86
2022/08/07 11:43:41;;;;;;;2.05;0.20;;;28.50;49.50;;;;;;5109640;28;20082;-85
2022/08/07 11:46:29;;;;;;;3.42;0.15;;;28.60;50.80;;;;;;5108769;28;20026;-86
2022/08/07 11:49:28;;;;;;;0.63;0.50;;;28.70;47.90;;;;;;5109513;28;20047;-86
2022/08/07 11:52:20;;;;;;;0.98;0.22;;;28.80;47.40;;;;;;5110471;28;20027;-87
2022/08/07 11:55:10;;;;;;;0.68;0.28;;;28.80;45.30;;;;;;5111029;28;20039;-86
2022/08/07 11:58:01;;;;;;;0.68;0.20;;;28.90;47.60;;;;;;5110335;28;20039;-86
2022/08/07 12:00:35;;;;;;;0.63;0.30;;;28.90;45.50;;;;;;5110743;28;20508;-86
2022/08/07 12:03:25;;;;;;;0.30;0.20;;;29.00;47.50;;;;;;5114680;28;20035;-85
2022/08/07 12:06:19;;;;;;;1.08;0.22;;;28.90;47.10;;;;;;5113219;28;20509;-85
2022/08/07 12:09:22;;;;;;;1.17;0.30;;;29.00;47.00;;;;;;5115246;28;20691;-86
2022/08/07 12:12:11;;;;;;;0.75;0.30;;;29.10;47.50;;;;;;5114441;28;20027;-84
2022/08/07 12:14:54;;;;;;;4.32;0.20;;;28.90;48.40;;;;;;5113332;28;20362;-85
2022/08/07 12:17:26;;;;;;;0.85;0.30;;;28.70;46.30;;;;;;5113908;28;20199;-84
2022/08/07 12:19:59;;;;;;;;;;;28.70;45.70;;;;;;5114809;28;20492;-86
2022/08/07 12:22:41;;;;;;;;;;;28.60;45.60;;;;;;5114738;28;19920;-85
2022/08/07 12:28:22;;;;;;;2.05;0.25;;;28.30;46.50;;;;;;5114462;28;20058;-85
2022/08/07 12:30:52;;;;;;;1.42;0.35;;;28.40;49.30;;;;;;5113925;28;20031;-86
2022/08/07 12:33:21;;;;;;;1.13;0.20;;;28.60;45.20;;;;;;5112763;28;20114;-87
2022/08/07 12:35:50;;;;;;;0.77;0.25;;;28.70;45.00;;;;;;5113691;28;20058;-85
2022/08/07 12:38:17;;;;;;;1.52;0.30;;;28.80;44.90;;;;;;5112996;28;20610;-86
2022/08/07 12:40:46;;;;;;;0.32;0.20;;;28.90;46.10;;;;;;5113993;28;20091;-85
2022/08/07 12:43:14;;;;;;;0.40;0.25;;;28.80;46.40;;;;;;5113003;28;20031;-85
2022/08/07 12:46:05;;;;;;;0.28;0.15;;;28.80;45.10;;;;;;5112434;28;20031;-85
2022/08/07 12:48:48;;;;;;;0.65;0.30;;;28.90;44.50;;;;;;5114285;28;20142;-84
2022/08/07 12:51:22;;;;;;;0.73;0.15;;;28.60;44.40;;;;;;5113880;28;20501;-84
2022/08/07 12:53:59;;;;;;;0.20;0.13;;;28.40;49.30;;;;;;5112636;28;20019;-85
2022/08/07 12:56:36;;;;;;;1.10;0.20;;;28.40;44.80;;;;;;5111859;28;20028;-85
2022/08/07 12:59:04;;;;;;;0.45;0.30;;;28.40;45.60;;;;;;5113890;28;20708;-87
2022/08/07 13:01:57;;;;;;;0.30;0.20;;;28.30;45.10;;;;;;5113908;28;20035;-87
2022/08/07 13:04:48;;;;;;;0.25;0.20;;;28.40;46.40;;;;;;5113880;28;20043;-87
2022/08/07 13:07:35;;;;;;;1.40;0.32;;;28.60;44.60;;;;;;5113830;28;20140;-86
2022/08/07 13:10:36;;;;;;;0.82;0.30;;;28.70;45.10;;;;;;5112965;28;20032;-85
2022/08/07 13:13:33;;;;;;;1.38;0.20;;;28.90;44.10;;;;;;5111768;28;20030;-86
2022/08/07 13:16:09;;;;;;;1.27;0.30;;;29.00;45.30;;;;;;5113795;27;20038;-85
2022/08/07 13:18:59;;;;;;;0.40;0.30;;;29.20;44.80;;;;;;5112480;28;20031;-86
2022/08/07 13:21:30;;;;;;;1.45;0.20;;;29.00;44.80;;;;;;5113182;28;20341;-85
2022/08/07 13:24:43;;;;;;;0.20;0.10;;;29.20;48.40;;;;;;5114117;28;20027;-85
2022/08/07 13:27:23;;;;;;;1.15;0.20;;;29.40;44.90;;;;;;5049653;28;20037;-84